Time;durP1;ratioP1;P1;durP2;ratioP2;P2;SDS_P1;SDS_P2;PMS_P1;PMS_P2;Temp;Humidity;BMP_temperature;BMP_pressure;BME280_temperature;BME280_humidity;BME280_pressure;Samples;Min_cycle;Max_cycle;Signal;HPM_P1;HPM_P2
2023/07/19 00:00:18;;;;;;;6.03;4.50;;;20.20;99.90;;;;;;5052357;28;20597;-58
2023/07/19 00:02:45;;;;;;;4.75;4.25;;;20.20;99.90;;;;;;5052434;28;20233;-58
2023/07/19 00:05:11;;;;;;;9.10;4.90;;;20.20;99.90;;;;;;5052539;28;20324;-59
2023/07/19 00:07:38;;;;;;;8.02;4.95;;;20.10;99.90;;;;;;5052645;28;20209;-58
2023/07/19 00:10:07;;;;;;;4.75;4.22;;;20.30;99.90;;;;;;5052208;28;20615;-58
2023/07/19 00:12:34;;;;;;;9.77;4.90;;;20.20;99.90;;;;;;5052312;28;20228;-58
2023/07/19 00:15:01;;;;;;;6.63;4.28;;;20.30;99.90;;;;;;5052209;28;20585;-59
2023/07/19 00:17:28;;;;;;;5.30;4.80;;;20.30;99.90;;;;;;5052199;28;20214;-58
2023/07/19 00:19:54;;;;;;;5.70;4.30;;;20.30;99.90;;;;;;5051831;28;20210;-58
2023/07/19 00:22:21;;;;;;;8.40;4.60;;;20.30;99.90;;;;;;5052110;28;20236;-58
2023/07/19 00:24:47;;;;;;;5.07;4.47;;;20.20;99.90;;;;;;5051910;28;20213;-58
2023/07/19 00:27:15;;;;;;;7.32;4.57;;;20.20;99.90;;;;;;5051429;28;20202;-58
2023/07/19 00:29:42;;;;;;;9.57;4.85;;;20.20;99.90;;;;;;5051581;28;20696;-59
2023/07/19 00:32:09;;;;;;;5.68;4.47;;;20.10;99.90;;;;;;5051396;28;20599;-58
2023/07/19 00:34:36;;;;;;;6.65;5.00;;;20.10;99.90;;;;;;5051552;28;20672;-58
2023/07/19 00:37:02;;;;;;;7.15;4.43;;;20.10;99.90;;;;;;5051402;28;20205;-58
2023/07/19 00:39:29;;;;;;;8.20;5.20;;;20.00;99.90;;;;;;5051531;28;20208;-58
2023/07/19 00:41:57;;;;;;;8.75;4.63;;;20.00;99.90;;;;;;5050496;28;20598;-58
2023/07/19 00:44:25;;;;;;;5.38;4.05;;;19.90;99.90;;;;;;5051339;28;20575;-59
2023/07/19 00:46:52;;;;;;;7.25;4.30;;;19.90;99.90;;;;;;5051407;28;20233;-58
2023/07/19 00:49:19;;;;;;;8.23;4.72;;;19.90;99.90;;;;;;5051430;28;20695;-58
2023/07/19 00:51:46;;;;;;;7.20;5.55;;;19.80;99.90;;;;;;5051758;28;20228;-59
2023/07/19 00:54:13;;;;;;;7.05;4.78;;;19.90;99.90;;;;;;5051200;28;20576;-59
2023/07/19 00:56:43;;;;;;;7.32;4.72;;;19.80;99.90;;;;;;5051383;28;20208;-58
2023/07/19 00:59:11;;;;;;;6.20;4.57;;;19.80;99.90;;;;;;5051304;28;20237;-58
2023/07/19 01:01:42;;;;;;;7.22;4.88;;;19.80;99.90;;;;;;5051479;28;20233;-59
2023/07/19 01:04:09;;;;;;;6.28;4.90;;;19.80;99.90;;;;;;5051717;28;20205;-58
2023/07/19 01:06:35;;;;;;;8.45;5.07;;;19.80;99.90;;;;;;5051380;28;20276;-58
2023/07/19 01:09:02;;;;;;;7.72;4.70;;;19.80;99.90;;;;;;5050971;28;20209;-58
2023/07/19 01:11:29;;;;;;;7.72;5.00;;;19.80;99.90;;;;;;5051155;28;20213;-58
2023/07/19 01:13:56;;;;;;;5.97;4.43;;;19.80;99.90;;;;;;5051020;28;20210;-59
2023/07/19 01:16:23;;;;;;;9.25;5.57;;;20.00;99.90;;;;;;5051208;28;20212;-58
2023/07/19 01:18:51;;;;;;;6.93;5.20;;;20.00;99.90;;;;;;5051144;28;20209;-58
2023/07/19 01:21:18;;;;;;;5.32;4.45;;;20.10;99.90;;;;;;5051112;28;20228;-58
2023/07/19 01:23:46;;;;;;;7.10;4.88;;;20.10;99.90;;;;;;5050845;28;20256;-57
2023/07/19 01:26:13;;;;;;;6.72;4.88;;;20.20;99.90;;;;;;5050950;28;20209;-58
2023/07/19 01:28:39;;;;;;;9.30;5.18;;;20.10;99.90;;;;;;5050838;28;20685;-58
2023/07/19 01:31:07;;;;;;;8.13;5.00;;;20.20;99.90;;;;;;5051213;28;20216;-57
2023/07/19 01:33:34;;;;;;;7.28;4.35;;;20.30;99.90;;;;;;5051306;28;20732;-58
2023/07/19 01:36:01;;;;;;;5.95;4.55;;;20.30;99.90;;;;;;5051590;28;20594;-58
2023/07/19 01:38:28;;;;;;;6.18;4.38;;;20.30;99.90;;;;;;5051713;28;20563;-58
2023/07/19 01:40:56;;;;;;;7.97;4.95;;;20.40;99.90;;;;;;5050914;28;20217;-58
2023/07/19 01:43:23;;;;;;;7.22;4.85;;;20.40;99.90;;;;;;5050617;28;20685;-58
2023/07/19 01:45:49;;;;;;;6.10;4.43;;;20.50;99.90;;;;;;5050594;28;20214;-58
2023/07/19 01:48:17;;;;;;;8.25;4.80;;;20.50;99.90;;;;;;5050555;28;20210;-60
2023/07/19 01:50:46;;;;;;;5.95;4.75;;;20.40;99.90;;;;;;5050703;28;20234;-58
2023/07/19 01:53:13;;;;;;;9.63;4.30;;;20.40;99.90;;;;;;5051950;28;20657;-58
2023/07/19 01:55:40;;;;;;;5.70;4.80;;;20.30;99.90;;;;;;5054483;28;20210;-58
2023/07/19 01:58:08;;;;;;;9.15;4.70;;;20.20;99.90;;;;;;5054581;28;20630;-58
2023/07/19 02:00:35;;;;;;;5.80;4.93;;;20.10;99.90;;;;;;5054595;28;20718;-57
2023/07/19 02:03:02;;;;;;;5.28;4.18;;;20.00;99.90;;;;;;5054194;28;20340;-58
2023/07/19 02:05:29;;;;;;;7.10;4.65;;;19.90;99.90;;;;;;5054216;28;20236;-57
2023/07/19 02:07:55;;;;;;;8.07;4.50;;;19.80;99.90;;;;;;5053579;28;20673;-57
2023/07/19 02:10:23;;;;;;;5.97;4.47;;;19.70;99.90;;;;;;5054413;28;20235;-58
2023/07/19 02:12:50;;;;;;;6.57;4.93;;;19.60;99.90;;;;;;5054090;28;20238;-59
2023/07/19 02:15:18;;;;;;;8.00;4.72;;;19.50;99.90;;;;;;5054164;28;20205;-58
2023/07/19 02:17:45;;;;;;;7.70;4.45;;;19.40;99.90;;;;;;5053877;28;20205;-57
2023/07/19 02:20:14;;;;;;;8.80;5.40;;;19.40;99.90;;;;;;5054035;28;20210;-58
2023/07/19 02:22:40;;;;;;;8.23;5.13;;;19.30;99.90;;;;;;5053683;28;20697;-58
2023/07/19 02:25:07;;;;;;;7.38;4.65;;;19.30;99.90;;;;;;5054374;28;20213;-58
2023/07/19 02:27:34;;;;;;;7.53;4.78;;;19.20;99.90;;;;;;5053543;28;20209;-58
2023/07/19 02:30:01;;;;;;;6.70;4.82;;;19.10;99.90;;;;;;5053697;28;20218;-58
2023/07/19 02:32:29;;;;;;;7.75;4.45;;;19.10;99.90;;;;;;5054117;28;20725;-59
2023/07/19 02:34:56;;;;;;;5.68;4.85;;;18.90;99.90;;;;;;5053616;28;20631;-58
2023/07/19 02:37:22;;;;;;;6.57;4.63;;;18.90;99.90;;;;;;5053723;28;20201;-58
2023/07/19 02:39:49;;;;;;;6.72;4.93;;;18.80;99.90;;;;;;5053401;28;20700;-58
2023/07/19 02:42:16;;;;;;;7.10;4.43;;;18.60;99.90;;;;;;5053190;28;20606;-58
2023/07/19 02:44:43;;;;;;;12.13;4.72;;;18.50;99.90;;;;;;5053734;28;20622;-58
2023/07/19 02:47:12;;;;;;;4.97;4.57;;;18.50;99.90;;;;;;5053111;28;20629;-58
2023/07/19 02:49:40;;;;;;;9.40;4.57;;;18.50;99.90;;;;;;5053277;28;20212;-57
2023/07/19 02:52:07;;;;;;;5.68;4.50;;;18.40;99.90;;;;;;5053056;28;20701;-58
2023/07/19 02:54:34;;;;;;;7.50;4.60;;;18.30;99.90;;;;;;5053378;28;20213;-58
2023/07/19 02:57:00;;;;;;;8.95;4.82;;;18.40;99.90;;;;;;5053224;28;20205;-59
2023/07/19 02:59:27;;;;;;;10.25;4.68;;;18.40;99.90;;;;;;5053329;28;20217;-58
2023/07/19 03:01:54;;;;;;;5.57;4.28;;;18.50;99.90;;;;;;5053022;28;20232;-57
2023/07/19 03:04:20;;;;;;;8.32;5.18;;;18.50;99.90;;;;;;5052300;28;20206;-58
2023/07/19 03:06:49;;;;;;;8.00;4.68;;;18.50;99.90;;;;;;5053211;28;20210;-59
2023/07/19 03:09:16;;;;;;;8.02;4.60;;;18.50;99.90;;;;;;5052886;28;20235;-58
2023/07/19 03:11:42;;;;;;;6.75;4.82;;;18.50;99.90;;;;;;5052906;28;20240;-58
2023/07/19 03:14:09;;;;;;;8.57;4.78;;;18.50;99.90;;;;;;5053000;28;20224;-59
2023/07/19 03:16:36;;;;;;;5.13;4.38;;;18.40;99.90;;;;;;5052319;28;20209;-58
2023/07/19 03:19:03;;;;;;;8.13;4.75;;;18.40;99.90;;;;;;5052803;28;20209;-58
2023/07/19 03:21:30;;;;;;;5.53;4.80;;;18.40;99.90;;;;;;5052587;28;20205;-58
2023/07/19 03:23:58;;;;;;;10.40;4.43;;;18.40;99.90;;;;;;5052565;28;20236;-60
2023/07/19 03:26:25;;;;;;;6.20;5.15;;;18.40;99.90;;;;;;5052514;28;20217;-58
2023/07/19 03:28:51;;;;;;;7.75;4.90;;;18.40;99.90;;;;;;5052486;28;20217;-57
2023/07/19 03:31:18;;;;;;;7.78;5.15;;;18.40;99.90;;;;;;5052280;28;20216;-58
2023/07/19 03:33:45;;;;;;;6.05;4.80;;;18.30;99.90;;;;;;5052595;28;20217;-58
2023/07/19 03:36:11;;;;;;;9.75;5.20;;;18.30;99.90;;;;;;5052126;28;20210;-58
2023/07/19 03:38:38;;;;;;;7.65;4.95;;;18.30;99.90;;;;;;5052412;28;20209;-58
2023/07/19 03:41:07;;;;;;;11.65;5.63;;;18.30;99.90;;;;;;5052387;28;20622;-58
2023/07/19 03:43:34;;;;;;;8.82;4.93;;;18.30;99.90;;;;;;5052057;28;20233;-57
2023/07/19 03:46:00;;;;;;;9.52;5.32;;;18.30;99.90;;;;;;5051778;28;20293;-58
2023/07/19 03:48:27;;;;;;;10.35;5.88;;;18.30;99.90;;;;;;5052463;28;20213;-58
2023/07/19 03:50:57;;;;;;;6.28;4.78;;;18.30;99.90;;;;;;5052076;28;20201;-58
2023/07/19 03:53:24;;;;;;;6.80;5.30;;;18.30;99.90;;;;;;5051929;28;20303;-57
2023/07/19 03:55:54;;;;;;;6.60;4.60;;;18.30;99.90;;;;;;5051697;28;20205;-57
2023/07/19 03:58:24;;;;;;;8.43;4.88;;;18.30;99.90;;;;;;5051685;28;20202;-57
2023/07/19 04:00:50;;;;;;;10.10;5.43;;;18.40;99.90;;;;;;5051772;28;20735;-57
2023/07/19 04:03:17;;;;;;;8.90;5.22;;;18.40;99.90;;;;;;5051538;28;20767;-57
2023/07/19 04:05:44;;;;;;;7.65;4.95;;;18.40;99.90;;;;;;5051778;28;20253;-57
2023/07/19 04:08:11;;;;;;;8.45;4.78;;;18.50;99.90;;;;;;5051781;28;20295;-56
2023/07/19 04:10:37;;;;;;;7.50;5.30;;;18.40;99.90;;;;;;5051689;28;20276;-58
2023/07/19 04:13:04;;;;;;;7.30;5.20;;;18.40;99.90;;;;;;5051681;28;20229;-58
2023/07/19 04:15:33;;;;;;;8.52;5.28;;;18.50;99.90;;;;;;5051501;28;20266;-58
2023/07/19 04:18:00;;;;;;;8.57;5.35;;;18.50;99.90;;;;;;5051593;28;20302;-58
2023/07/19 04:20:26;;;;;;;8.98;4.68;;;18.60;99.90;;;;;;5051434;28;20653;-58
2023/07/19 04:22:53;;;;;;;6.60;4.50;;;18.60;99.90;;;;;;5051438;28;20252;-59
2023/07/19 04:25:20;;;;;;;7.32;4.55;;;18.70;99.90;;;;;;5051414;28;20213;-58
2023/07/19 04:27:47;;;;;;;8.68;5.13;;;18.70;99.90;;;;;;5051413;28;20202;-58
2023/07/19 04:30:14;;;;;;;8.77;4.72;;;18.80;99.90;;;;;;5051333;28;20216;-58
2023/07/19 04:32:42;;;;;;;7.60;5.03;;;18.90;99.90;;;;;;5051533;28;20312;-59
2023/07/19 04:35:10;;;;;;;7.72;4.53;;;18.90;99.90;;;;;;5051189;28;20696;-57
2023/07/19 04:37:38;;;;;;;5.45;4.50;;;19.00;99.90;;;;;;5051318;28;20201;-58
2023/07/19 04:40:06;;;;;;;11.00;4.75;;;19.10;99.90;;;;;;5051219;28;20205;-58
2023/07/19 04:42:32;;;;;;;9.23;4.60;;;19.20;99.90;;;;;;5051727;28;20257;-58
2023/07/19 04:44:59;;;;;;;8.63;4.90;;;19.20;99.90;;;;;;5051471;28;20235;-59
2023/07/19 04:47:26;;;;;;;5.88;4.30;;;19.20;99.90;;;;;;5051025;28;20408;-59
2023/07/19 04:49:54;;;;;;;5.40;4.47;;;19.20;99.90;;;;;;5051363;28;20218;-58
2023/07/19 04:52:21;;;;;;;9.38;4.72;;;19.40;99.90;;;;;;5050989;28;20233;-58
2023/07/19 04:54:48;;;;;;;7.00;4.60;;;19.50;99.90;;;;;;5051257;28;20721;-58
2023/07/19 04:57:15;;;;;;;7.25;4.57;;;19.60;99.90;;;;;;5050816;28;20223;-59
2023/07/19 04:59:43;;;;;;;8.98;4.93;;;19.60;99.90;;;;;;5051374;28;20217;-59
2023/07/19 05:02:09;;;;;;;7.43;4.40;;;19.70;99.90;;;;;;5051451;28;20295;-59
2023/07/19 05:04:36;;;;;;;6.82;4.75;;;19.70;99.90;;;;;;5051066;28;20208;-59
2023/07/19 05:07:04;;;;;;;6.93;4.35;;;19.80;99.90;;;;;;5050850;28;20214;-59
2023/07/19 05:09:31;;;;;;;6.70;4.38;;;19.90;99.90;;;;;;5050861;28;20669;-59
2023/07/19 05:11:58;;;;;;;5.30;4.35;;;20.00;99.90;;;;;;5050759;28;20256;-58
2023/07/19 05:14:26;;;;;;;6.25;4.78;;;20.20;99.90;;;;;;5051084;28;20272;-59
2023/07/19 05:16:52;;;;;;;7.20;4.78;;;20.30;99.90;;;;;;5050899;28;20205;-58
2023/07/19 05:19:19;;;;;;;5.97;4.88;;;20.40;99.90;;;;;;5050638;28;20688;-58
2023/07/19 05:21:46;;;;;;;5.63;4.50;;;20.60;99.90;;;;;;5050555;28;20252;-58
2023/07/19 05:24:14;;;;;;;6.85;4.68;;;20.80;99.90;;;;;;5050916;28;20229;-58
2023/07/19 05:26:40;;;;;;;8.20;4.40;;;21.20;99.90;;;;;;5050748;28;20311;-58
2023/07/19 05:29:08;;;;;;;5.57;4.30;;;21.70;99.90;;;;;;5054307;28;20201;-59
2023/07/19 05:31:35;;;;;;;9.13;4.18;;;22.80;99.90;;;;;;5054851;28;20231;-58
2023/07/19 05:34:02;;;;;;;5.30;3.83;;;23.50;99.90;;;;;;5054778;28;20229;-59
2023/07/19 05:36:28;;;;;;;5.63;3.88;;;23.60;99.90;;;;;;5054570;28;20661;-59
2023/07/19 05:38:55;;;;;;;8.52;4.10;;;23.50;99.90;;;;;;5054757;28;20232;-58
2023/07/19 05:41:23;;;;;;;4.25;3.83;;;23.90;99.90;;;;;;5054591;28;20330;-62
2023/07/19 05:43:50;;;;;;;9.93;3.92;;;25.20;99.90;;;;;;5054164;28;20230;-57
2023/07/19 05:46:18;;;;;;;6.20;3.92;;;26.20;99.90;;;;;;5054145;28;20206;-60
2023/07/19 05:48:45;;;;;;;7.65;4.32;;;27.00;99.90;;;;;;5054258;28;20666;-61
2023/07/19 05:51:12;;;;;;;6.93;3.85;;;27.70;99.90;;;;;;5054411;28;20214;-62
2023/07/19 05:53:38;;;;;;;4.38;3.60;;;29.00;99.90;;;;;;5054029;28;20225;-59
2023/07/19 05:56:05;;;;;;;6.28;3.45;;;30.10;99.90;;;;;;5053572;28;20553;-66
2023/07/19 05:58:33;;;;;;;7.20;3.70;;;31.30;99.90;;;;;;5054224;28;20553;-61
2023/07/19 06:01:00;;;;;;;6.20;3.95;;;31.80;99.90;;;;;;5054049;28;20217;-68
2023/07/19 06:03:27;;;;;;;7.80;3.70;;;32.40;99.20;;;;;;5053958;28;20225;-58
2023/07/19 06:05:54;;;;;;;5.20;3.97;;;33.20;96.90;;;;;;5053939;28;20233;-58
2023/07/19 06:08:20;;;;;;;4.03;3.22;;;33.60;95.00;;;;;;5053854;28;20661;-58
2023/07/19 06:10:47;;;;;;;7.90;3.72;;;34.30;92.90;;;;;;5053720;28;20210;-59
2023/07/19 06:13:14;;;;;;;3.90;3.40;;;35.10;89.50;;;;;;5053810;28;20221;-59
2023/07/19 06:15:42;;;;;;;4.80;3.30;;;36.00;85.40;;;;;;5053440;28;20213;-59
2023/07/19 06:18:09;;;;;;;5.40;3.17;;;37.00;80.50;;;;;;5053652;28;20212;-59
2023/07/19 06:20:35;;;;;;;4.80;3.05;;;37.80;74.70;;;;;;5053726;28;20210;-59
2023/07/19 06:23:02;;;;;;;3.78;3.17;;;38.60;70.10;;;;;;5058414;22;20237;-59
2023/07/19 06:25:29;;;;;;;5.03;3.42;;;39.00;66.80;;;;;;5033960;28;20194;-59
2023/07/19 06:27:56;;;;;;;4.60;3.30;;;39.50;65.50;;;;;;5033612;28;20206;-59
2023/07/19 06:30:22;;;;;;;4.05;2.92;;;39.50;61.50;;;;;;5033478;28;20214;-61
2023/07/19 06:32:51;;;;;;;3.30;3.00;;;39.20;62.60;;;;;;5033468;28;20317;-59
2023/07/19 06:35:17;;;;;;;6.85;3.15;;;39.60;60.90;;;;;;5033742;28;20214;-60
2023/07/19 06:37:44;;;;;;;5.78;3.40;;;40.50;59.30;;;;;;5033502;28;20217;-61
2023/07/19 06:40:11;;;;;;;5.10;3.10;;;41.30;55.40;;;;;;5033777;28;20213;-60
2023/07/19 06:42:38;;;;;;;4.72;3.20;;;41.60;55.30;;;;;;5033416;28;20237;-61
2023/07/19 06:45:06;;;;;;;4.43;2.97;;;42.10;53.60;;;;;;5033231;28;20236;-60
2023/07/19 06:47:32;;;;;;;3.50;3.08;;;42.60;51.90;;;;;;5033113;28;20209;-61
2023/07/19 06:50:00;;;;;;;8.23;3.00;;;43.30;51.00;;;;;;5033530;28;20623;-61
2023/07/19 06:52:27;;;;;;;5.63;3.17;;;43.70;49.40;;;;;;5033446;28;20640;-60
2023/07/19 06:54:54;;;;;;;7.47;3.33;;;44.10;48.40;;;;;;5033316;28;20213;-61
2023/07/19 06:57:21;;;;;;;3.88;2.67;;;44.40;47.90;;;;;;5033127;28;20213;-60
2023/07/19 06:59:49;;;;;;;6.88;2.95;;;44.70;46.70;;;;;;5033312;28;20210;-60
2023/07/19 07:02:18;;;;;;;4.57;2.83;;;44.80;45.30;;;;;;5032954;28;20237;-59
2023/07/19 07:04:45;;;;;;;5.72;3.10;;;45.00;44.90;;;;;;5033424;28;20225;-60
2023/07/19 07:07:14;;;;;;;5.53;2.88;;;45.50;44.40;;;;;;5032840;28;20205;-60
2023/07/19 07:09:41;;;;;;;5.75;2.67;;;45.60;43.50;;;;;;5033315;28;20549;-60
2023/07/19 07:12:09;;;;;;;4.57;2.97;;;46.20;42.60;;;;;;5032743;28;20678;-59
2023/07/19 07:14:36;;;;;;;6.45;3.03;;;46.70;42.30;;;;;;5033236;28;20212;-60
2023/07/19 07:17:03;;;;;;;5.82;2.80;;;46.70;41.30;;;;;;5032930;28;20387;-60
2023/07/19 07:19:30;;;;;;;5.22;3.28;;;46.30;41.40;;;;;;5032789;28;20244;-60
2023/07/19 07:21:56;;;;;;;5.75;3.10;;;45.20;42.80;;;;;;5032679;28;20684;-60
2023/07/19 07:24:25;;;;;;;4.82;3.15;;;45.10;42.80;;;;;;5032710;28;20236;-60
2023/07/19 07:26:51;;;;;;;3.42;2.90;;;45.60;43.10;;;;;;5032724;28;20662;-60
2023/07/19 07:29:18;;;;;;;7.28;3.03;;;46.50;41.50;;;;;;5032831;28;20205;-61
2023/07/19 07:31:45;;;;;;;4.65;2.95;;;47.20;40.60;;;;;;5033169;28;20702;-61
2023/07/19 07:34:12;;;;;;;6.13;3.20;;;47.60;40.10;;;;;;5032597;28;20229;-61
2023/07/19 07:36:39;;;;;;;4.25;2.72;;;48.20;39.40;;;;;;5032622;28;20272;-61
2023/07/19 07:39:06;;;;;;;4.75;4.03;;;48.60;38.90;;;;;;5032417;28;20210;-60
2023/07/19 07:41:34;;;;;;;6.00;2.90;;;48.50;38.40;;;;;;5032770;28;20213;-59
2023/07/19 07:44:01;;;;;;;5.53;3.20;;;48.40;38.60;;;;;;5032491;28;20225;-60
2023/07/19 07:46:29;;;;;;;4.82;3.00;;;48.40;38.70;;;;;;5032198;28;20292;-64
2023/07/19 07:48:59;;;;;;;6.28;3.25;;;48.70;38.50;;;;;;5032652;28;20654;-60
2023/07/19 07:51:26;;;;;;;6.78;3.03;;;48.70;38.00;;;;;;5032008;28;20293;-60
2023/07/19 07:53:53;;;;;;;6.07;3.28;;;48.40;38.70;;;;;;5032351;28;20590;-61
2023/07/19 07:56:19;;;;;;;7.80;2.92;;;48.20;38.10;;;;;;5032343;28;20210;-60
2023/07/19 07:58:47;;;;;;;4.03;2.78;;;48.30;37.90;;;;;;5032451;28;20213;-61
2023/07/19 08:01:14;;;;;;;3.80;2.72;;;48.40;37.50;;;;;;5032222;28;20577;-61
2023/07/19 08:03:41;;;;;;;4.15;2.72;;;48.40;36.80;;;;;;5031923;28;20226;-61
2023/07/19 08:06:08;;;;;;;3.28;2.90;;;47.70;37.60;;;;;;5031669;28;20650;-60
2023/07/19 08:08:34;;;;;;;4.50;2.60;;;47.20;38.30;;;;;;5032017;28;20213;-61
2023/07/19 08:11:04;;;;;;;5.10;2.80;;;47.40;38.70;;;;;;5031921;28;20720;-60
2023/07/19 08:13:31;;;;;;;4.82;2.80;;;47.70;37.80;;;;;;5032153;28;20253;-60
2023/07/19 08:15:59;;;;;;;10.20;2.50;;;48.10;36.80;;;;;;5031376;28;20206;-60
2023/07/19 08:18:25;;;;;;;5.07;2.47;;;47.80;37.50;;;;;;5032013;28;20217;-60
2023/07/19 08:20:53;;;;;;;6.07;2.53;;;47.70;37.20;;;;;;5032113;28;20217;-60
2023/07/19 08:23:20;;;;;;;6.88;2.80;;;47.80;36.40;;;;;;5032294;28;20325;-60
2023/07/19 08:25:46;;;;;;;4.55;2.80;;;46.90;37.60;;;;;;5031936;28;20229;-60
2023/07/19 08:28:13;;;;;;;5.00;2.50;;;46.10;38.70;;;;;;5031657;28;20817;-62
2023/07/19 08:30:40;;;;;;;5.25;2.72;;;45.90;38.60;;;;;;5028917;28;20210;-63
2023/07/19 08:33:08;;;;;;;6.88;2.78;;;45.60;38.70;;;;;;5031566;28;20229;-64
2023/07/19 08:35:35;;;;;;;4.93;2.70;;;45.70;38.30;;;;;;5031493;28;20209;-61
2023/07/19 08:38:02;;;;;;;3.90;2.90;;;46.30;38.20;;;;;;5031713;28;20212;-59
2023/07/19 08:40:32;;;;;;;4.55;2.97;;;46.70;37.90;;;;;;5030978;28;20206;-65
2023/07/19 08:42:58;;;;;;;5.85;2.72;;;46.70;37.40;;;;;;5031686;28;20315;-64
2023/07/19 08:45:27;;;;;;;6.93;2.80;;;46.50;37.80;;;;;;5031219;28;20248;-66
2023/07/19 08:47:54;;;;;;;4.90;2.53;;;46.00;37.20;;;;;;5030997;28;20213;-66
2023/07/19 08:50:23;;;;;;;3.35;2.20;;;45.50;38.50;;;;;;5029042;28;20202;-65
2023/07/19 08:52:50;;;;;;;4.28;2.60;;;44.90;38.70;;;;;;5028095;28;20233;-65
2023/07/19 08:55:18;;;;;;;5.90;2.85;;;43.90;39.00;;;;;;5030832;28;20232;-65
2023/07/19 08:57:45;;;;;;;7.05;2.78;;;42.40;40.40;;;;;;5030890;28;20206;-64
2023/07/19 09:00:17;;;;;;;6.75;3.20;;;40.90;42.30;;;;;;5030607;28;20206;-64
2023/07/19 09:02:43;;;;;;;7.35;2.90;;;39.30;44.50;;;;;;5031875;28;20226;-65
2023/07/19 09:05:12;;;;;;;5.60;2.95;;;37.80;46.00;;;;;;5035088;28;20234;-68
2023/07/19 09:07:41;;;;;;;3.97;2.58;;;36.60;48.10;;;;;;5034902;28;20211;-65
2023/07/19 09:10:10;;;;;;;6.57;2.92;;;35.60;50.10;;;;;;5035355;28;20206;-68
2023/07/19 09:12:38;;;;;;;4.93;2.25;;;34.70;51.40;;;;;;5034763;28;20698;-67
2023/07/19 09:15:07;;;;;;;6.75;2.30;;;33.80;50.60;;;;;;5034976;28;20206;-66
2023/07/19 09:17:37;;;;;;;3.25;1.85;;;33.10;48.80;;;;;;5035289;28;20209;-69
2023/07/19 09:20:06;;;;;;;3.97;2.25;;;32.50;49.00;;;;;;5036392;28;20252;-68
2023/07/19 09:22:34;;;;;;;3.38;2.03;;;31.90;51.10;;;;;;5036104;28;20681;-68
2023/07/19 09:25:03;;;;;;;4.22;1.75;;;31.50;50.00;;;;;;5036461;28;20226;-67
2023/07/19 09:27:31;;;;;;;3.75;2.67;;;31.20;50.60;;;;;;5035221;28;20237;-67
2023/07/19 09:29:58;;;;;;;6.95;3.28;;;31.10;51.20;;;;;;5034787;28;20664;-66
2023/07/19 09:32:24;;;;;;;3.03;2.08;;;30.90;51.10;;;;;;5034400;28;20226;-66
2023/07/19 09:34:54;;;;;;;4.70;2.05;;;30.90;50.40;;;;;;5034875;28;20210;-67
2023/07/19 09:37:22;;;;;;;2.67;1.90;;;31.00;50.50;;;;;;5034494;28;20237;-65
2023/07/19 09:39:48;;;;;;;3.65;2.10;;;31.00;50.50;;;;;;5034142;28;20206;-67
2023/07/19 09:42:17;;;;;;;3.70;1.90;;;31.00;50.00;;;;;;5034324;28;20717;-66
2023/07/19 09:44:46;;;;;;;4.30;2.10;;;31.00;49.50;;;;;;5034374;28;20221;-66
2023/07/19 09:47:13;;;;;;;2.88;2.20;;;30.90;50.40;;;;;;5034177;28;20296;-67
2023/07/19 09:49:42;;;;;;;2.90;1.73;;;31.00;50.50;;;;;;5034280;28;20301;-66
2023/07/19 09:52:09;;;;;;;5.07;1.98;;;31.00;48.80;;;;;;5034443;28;20230;-65
2023/07/19 09:54:37;;;;;;;4.13;2.00;;;31.00;48.30;;;;;;5034081;28;20285;-66
2023/07/19 09:57:04;;;;;;;6.22;1.98;;;31.10;48.70;;;;;;5034140;28;20202;-64
2023/07/19 09:59:36;;;;;;;4.38;1.90;;;31.20;47.70;;;;;;5034137;28;20214;-65
2023/07/19 10:02:04;;;;;;;6.35;1.80;;;31.10;47.90;;;;;;5033665;28;20202;-60
2023/07/19 10:04:37;;;;;;;2.95;2.00;;;31.00;48.40;;;;;;5034022;28;20226;-60
2023/07/19 10:07:05;;;;;;;8.10;3.30;;;31.00;50.00;;;;;;5034071;28;20214;-66
2023/07/19 10:09:33;;;;;;;6.20;2.83;;;31.10;48.70;;;;;;5034307;28;20206;-60
2023/07/19 10:12:01;;;;;;;5.88;2.22;;;31.30;49.30;;;;;;5034053;28;20209;-62
2023/07/19 10:14:28;;;;;;;3.75;2.20;;;31.40;48.40;;;;;;5033470;28;20230;-61
2023/07/19 10:16:59;;;;;;;5.40;1.98;;;31.40;48.70;;;;;;5033768;28;20206;-59
2023/07/19 10:19:26;;;;;;;3.25;2.00;;;31.40;48.00;;;;;;5034000;28;20210;-60
2023/07/19 10:22:10;;;;;;;2.58;2.00;;;31.50;48.00;;;;;;5033780;28;20222;-60
2023/07/19 10:24:38;;;;;;;3.00;1.73;;;31.60;46.60;;;;;;5033573;28;20654;-62
2023/07/19 10:27:07;;;;;;;3.67;1.90;;;31.60;47.20;;;;;;5033491;28;20329;-63
2023/07/19 10:29:45;;;;;;;3.75;1.98;;;31.60;47.60;;;;;;5033492;28;20206;-63
2023/07/19 10:32:13;;;;;;;2.65;1.67;;;31.50;47.50;;;;;;5033099;28;20233;-63
2023/07/19 10:34:44;;;;;;;2.92;1.70;;;31.60;46.10;;;;;;5033580;28;20206;-62
2023/07/19 10:37:11;;;;;;;4.18;1.88;;;31.60;46.20;;;;;;5033561;28;20260;-62
2023/07/19 10:39:38;;;;;;;4.90;1.80;;;31.60;45.90;;;;;;5033484;28;20210;-62
2023/07/19 10:42:05;;;;;;;6.22;2.50;;;31.70;45.50;;;;;;5033178;28;20214;-62
2023/07/19 10:44:32;;;;;;;5.10;1.55;;;31.80;45.90;;;;;;5032956;28;20233;-62
2023/07/19 10:46:59;;;;;;;5.25;1.65;;;32.00;45.60;;;;;;5033217;28;20244;-63
2023/07/19 10:49:28;;;;;;;4.32;1.70;;;32.10;44.80;;;;;;5033247;28;20210;-63
2023/07/19 10:51:56;;;;;;;1.65;1.55;;;32.20;44.90;;;;;;5033159;28;20217;-62
2023/07/19 10:54:23;;;;;;;4.25;1.70;;;32.40;44.50;;;;;;5033118;28;20615;-63
2023/07/19 10:56:50;;;;;;;2.28;1.60;;;32.60;43.90;;;;;;5033003;28;20297;-62
2023/07/19 10:59:17;;;;;;;5.40;1.50;;;32.60;44.30;;;;;;5033056;28;20635;-62
2023/07/19 11:01:44;;;;;;;2.92;1.60;;;32.60;44.60;;;;;;5033150;28;20715;-62
2023/07/19 11:04:12;;;;;;;3.70;1.67;;;32.70;44.40;;;;;;5030872;28;20233;-63
2023/07/19 11:06:55;;;;;;;3.35;1.63;;;32.60;43.50;;;;;;5032698;28;20215;-70
2023/07/19 11:09:23;;;;;;;2.83;1.65;;;32.40;44.40;;;;;;5033442;28;20230;-69
2023/07/19 11:11:51;;;;;;;5.57;1.95;;;32.30;44.70;;;;;;5033211;28;20214;-69
2023/07/19 11:14:36;;;;;;;2.65;1.70;;;32.20;45.30;;;;;;5033395;28;20217;-70
2023/07/19 11:17:03;;;;;;;2.97;1.80;;;32.00;45.60;;;;;;5032974;28;20206;-67
2023/07/19 11:19:35;;;;;;;7.45;2.65;;;32.00;45.70;;;;;;5032771;28;20301;-69
2023/07/19 11:22:04;;;;;;;4.20;2.38;;;32.00;45.30;;;;;;5032210;28;20221;-66
2023/07/19 11:24:38;;;;;;;6.70;2.13;;;32.20;45.90;;;;;;5032786;28;20226;-65
2023/07/19 11:27:06;;;;;;;4.93;1.90;;;32.40;45.60;;;;;;5031743;28;20213;-66
2023/07/19 11:29:33;;;;;;;3.08;1.80;;;32.60;45.40;;;;;;5032583;28;20260;-61
2023/07/19 11:32:18;;;;;;;4.45;2.00;;;32.70;46.00;;;;;;5032627;28;20245;-61
2023/07/19 11:34:46;;;;;;;3.25;1.77;;;32.70;45.20;;;;;;5032372;28;20207;-61
2023/07/19 11:37:18;;;;;;;3.22;1.58;;;32.70;45.50;;;;;;5032273;28;20230;-65
2023/07/19 11:39:47;;;;;;;4.03;1.83;;;32.70;45.50;;;;;;5032999;28;20210;-64
2023/07/19 11:42:14;;;;;;;2.78;1.70;;;32.60;45.70;;;;;;5031958;28;20702;-62
2023/07/19 11:44:45;;;;;;;3.95;1.70;;;32.60;45.90;;;;;;5032410;28;20260;-67
2023/07/19 11:47:12;;;;;;;2.33;1.60;;;32.50;45.50;;;;;;5031799;28;20289;-61
2023/07/19 11:49:39;;;;;;;5.22;1.65;;;32.20;44.80;;;;;;5032067;28;20609;-63
2023/07/19 11:52:07;;;;;;;7.43;1.70;;;31.90;46.20;;;;;;5031992;28;20621;-61
2023/07/19 11:54:35;;;;;;;3.80;1.70;;;31.80;46.30;;;;;;5032043;28;20210;-63
2023/07/19 11:57:01;;;;;;;5.00;1.80;;;31.90;45.70;;;;;;5031703;28;20210;-62
2023/07/19 11:59:28;;;;;;;1.92;1.58;;;32.00;46.70;;;;;;5032055;28;20222;-62
2023/07/19 12:01:55;;;;;;;5.93;1.70;;;32.40;46.00;;;;;;5031989;28;20749;-63
2023/07/19 12:04:22;;;;;;;3.47;1.90;;;32.60;45.10;;;;;;5032424;28;20217;-62
2023/07/19 12:06:49;;;;;;;4.47;1.75;;;32.60;45.90;;;;;;5031221;28;20230;-62
2023/07/19 12:09:15;;;;;;;3.92;1.95;;;32.70;46.20;;;;;;5031711;28;20240;-63
2023/07/19 12:11:45;;;;;;;3.38;1.70;;;32.80;45.70;;;;;;5031967;28;20202;-63
2023/07/19 12:14:16;;;;;;;3.70;1.85;;;32.90;46.10;;;;;;5031723;28;20206;-63
2023/07/19 12:16:43;;;;;;;2.75;1.70;;;33.10;45.50;;;;;;5031587;28;20589;-62
2023/07/19 12:19:11;;;;;;;3.00;1.70;;;33.50;45.20;;;;;;5031606;28;20210;-62
2023/07/19 12:21:39;;;;;;;3.85;1.90;;;33.90;45.10;;;;;;5031822;28;20235;-63
2023/07/19 12:24:06;;;;;;;2.50;1.73;;;34.30;44.90;;;;;;5053578;22;20249;-64
2023/07/19 12:26:33;;;;;;;5.75;1.80;;;34.70;43.60;;;;;;5030809;28;20230;-60
2023/07/19 12:29:02;;;;;;;3.80;1.80;;;35.10;43.10;;;;;;5031195;28;20209;-60
2023/07/19 12:31:29;;;;;;;4.78;1.77;;;35.50;42.60;;;;;;5031358;28;20210;-60
2023/07/19 12:33:56;;;;;;;4.10;1.70;;;35.80;42.00;;;;;;5030791;28;20673;-61
2023/07/19 12:36:23;;;;;;;4.38;1.90;;;36.00;42.50;;;;;;5030588;28;20232;-60
2023/07/19 12:38:50;;;;;;;4.60;1.70;;;35.80;43.40;;;;;;5030736;28;20202;-60
2023/07/19 12:41:17;;;;;;;6.97;2.10;;;35.50;42.50;;;;;;5030604;28;20210;-60
2023/07/19 12:43:43;;;;;;;4.38;1.90;;;35.50;42.50;;;;;;5030850;28;20249;-63
2023/07/19 12:46:11;;;;;;;4.03;1.67;;;35.40;42.90;;;;;;5030927;28;20226;-64